createdAt,value
2019-02-04T00:00:02.809Z,927.54
2019-02-04T00:00:16.077Z,927.58
2019-02-04T00:00:29.645Z,927.6
2019-02-04T00:00:42.714Z,927.56
2019-02-04T00:00:55.840Z,927.57
2019-02-04T00:01:08.872Z,927.58
2019-02-04T00:01:21.948Z,927.61
2019-02-04T00:01:35.356Z,927.6
2019-02-04T00:01:48.421Z,927.57
2019-02-04T00:02:01.415Z,927.59
2019-02-04T00:02:14.498Z,927.57
2019-02-04T00:02:27.494Z,927.61
2019-02-04T00:02:41.226Z,927.66
2019-02-04T00:02:54.338Z,927.62
2019-02-04T00:03:07.426Z,927.63
2019-02-04T00:03:20.535Z,927.65
2019-02-04T00:03:33.587Z,927.64
2019-02-04T00:03:47.330Z,927.71
2019-02-04T00:04:00.346Z,927.62
2019-02-04T00:04:13.469Z,927.65
2019-02-04T00:04:26.472Z,927.66
2019-02-04T00:04:40.828Z,927.66
2019-02-04T00:04:54.633Z,927.69
2019-02-04T00:05:07.704Z,927.66
2019-02-04T00:05:20.747Z,927.68
2019-02-04T00:05:33.777Z,927.76
2019-02-04T00:05:46.873Z,927.71
2019-02-04T00:06:00.520Z,927.79
2019-02-04T00:06:13.914Z,927.7
2019-02-04T00:06:26.952Z,927.7
2019-02-04T00:06:39.997Z,927.78
2019-02-04T00:06:53.056Z,927.76
2019-02-04T00:07:07.798Z,927.74
2019-02-04T00:07:21.149Z,927.76
2019-02-04T00:07:34.332Z,927.81
2019-02-04T00:07:47.355Z,927.76
2019-02-04T00:08:00.384Z,927.83
2019-02-04T00:08:13.686Z,927.84
2019-02-04T00:08:27.303Z,927.8
2019-02-04T00:08:40.410Z,927.96
2019-02-04T00:08:53.506Z,927.91
2019-02-04T00:09:06.543Z,927.94
2019-02-04T00:09:19.754Z,927.9
2019-02-04T00:09:33.365Z,927.93
2019-02-04T00:09:46.464Z,927.96
2019-02-04T00:09:59.564Z,927.87
2019-02-04T00:10:12.667Z,927.92
2019-02-04T00:10:25.705Z,927.95
2019-02-04T00:10:39.271Z,927.92
2019-02-04T00:10:52.266Z,927.95
2019-02-04T00:11:06.439Z,927.96
2019-02-04T00:11:19.525Z,927.99
2019-02-04T00:11:32.583Z,927.94
2019-02-04T00:11:46.226Z,928.01
2019-02-04T00:11:59.321Z,927.96
2019-02-04T00:12:12.440Z,927.91
2019-02-04T00:12:25.478Z,927.98
2019-02-04T00:12:38.982Z,927.99
2019-02-04T00:12:52.648Z,928.04
2019-02-04T00:13:05.835Z,927.88
2019-02-04T00:13:18.839Z,927.95
2019-02-04T00:13:31.405Z,927.92
2019-02-04T00:13:44.452Z,927.93
2019-02-04T00:13:57.850Z,927.92
2019-02-04T00:14:11.414Z,927.96
2019-02-04T00:14:24.413Z,927.93
2019-02-04T00:14:37.411Z,927.91
2019-02-04T00:14:50.438Z,927.89
2019-02-04T00:15:03.573Z,927.85
2019-02-04T00:15:17.133Z,927.88
2019-02-04T00:15:30.136Z,927.88
2019-02-04T00:15:43.140Z,927.88
2019-02-04T00:15:56.187Z,927.9
2019-02-04T00:16:09.251Z,927.91
2019-02-04T00:16:22.860Z,927.88
2019-02-04T00:16:44.984Z,927.87
2019-02-04T00:16:58.006Z,927.86
2019-02-04T00:17:11.049Z,927.91
2019-02-04T00:17:24.395Z,927.9
2019-02-04T00:17:37.793Z,927.91
2019-02-04T00:17:50.804Z,927.91
2019-02-04T00:18:03.814Z,927.88
2019-02-04T00:18:16.855Z,927.89
2019-02-04T00:18:29.424Z,927.88
2019-02-04T00:18:43.018Z,927.92
2019-02-04T00:18:56.025Z,927.96
2019-02-04T00:19:09.012Z,927.93
2019-02-04T00:19:22.049Z,927.94
2019-02-04T00:19:35.097Z,927.96
2019-02-04T00:19:48.738Z,927.97
2019-02-04T00:20:01.845Z,927.97
2019-02-04T00:20:14.989Z,927.92
2019-02-04T00:20:28.025Z,927.93
2019-02-04T00:20:41.113Z,927.91
2019-02-04T00:20:54.698Z,927.97
2019-02-04T00:21:08.020Z,927.89
2019-02-04T00:21:21.110Z,927.86
2019-02-04T00:21:33.801Z,927.92
2019-02-04T00:21:46.862Z,927.88
2019-02-04T00:22:00.249Z,927.82
2019-02-04T00:22:13.485Z,927.85
2019-02-04T00:22:26.527Z,927.84
2019-02-04T00:22:39.581Z,927.86
2019-02-04T00:22:52.610Z,927.86
2019-02-04T00:23:05.654Z,927.86
2019-02-04T00:23:19.452Z,927.81
2019-02-04T00:23:32.537Z,927.82
2019-02-04T00:23:45.555Z,927.85
2019-02-04T00:23:58.168Z,927.84
2019-02-04T00:24:11.321Z,927.84
2019-02-04T00:24:24.894Z,927.83
2019-02-04T00:24:38.067Z,927.8
2019-02-04T00:24:51.104Z,927.83
2019-02-04T00:25:04.255Z,927.86
2019-02-04T00:25:17.282Z,927.83
2019-02-04T00:25:32.199Z,927.81
2019-02-04T00:25:45.234Z,927.83
2019-02-04T00:25:58.281Z,927.83
2019-02-04T00:26:11.253Z,927.79
2019-02-04T00:26:24.369Z,927.81
2019-02-04T00:26:37.860Z,927.78
2019-02-04T00:27:01.358Z,927.81
2019-02-04T00:27:14.425Z,927.8
2019-02-04T00:27:27.517Z,927.81
2019-02-04T00:27:41.677Z,927.81
2019-02-04T00:27:55.363Z,927.84
2019-02-04T00:28:08.407Z,927.81
2019-02-04T00:28:21.476Z,927.81
2019-02-04T00:28:34.545Z,927.75
2019-02-04T00:28:47.525Z,927.78
2019-02-04T00:29:01.205Z,927.79
2019-02-04T00:29:14.252Z,927.75
2019-02-04T00:29:27.305Z,927.77
2019-02-04T00:29:40.318Z,927.74
2019-02-04T00:29:53.386Z,927.77
2019-02-04T00:30:06.932Z,927.75
2019-02-04T00:30:19.952Z,927.74
2019-02-04T00:30:32.949Z,927.75
2019-02-04T00:30:45.974Z,927.73
2019-02-04T00:30:59.032Z,927.69
2019-02-04T00:31:15.780Z,927.71
2019-02-04T00:31:28.794Z,927.69
2019-02-04T00:31:41.873Z,927.72
2019-02-04T00:31:54.929Z,927.69
2019-02-04T00:32:07.977Z,927.7
2019-02-04T00:32:21.432Z,927.72
2019-02-04T00:32:34.526Z,927.7
2019-02-04T00:32:47.539Z,927.69
2019-02-04T00:33:00.533Z,927.74
2019-02-04T00:33:13.695Z,927.75
2019-02-04T00:33:27.097Z,927.76
2019-02-04T00:33:40.371Z,927.7
2019-02-04T00:33:53.389Z,927.71
2019-02-04T00:34:06.397Z,927.73
2019-02-04T00:34:19.421Z,927.73
2019-02-04T00:34:32.428Z,927.74
2019-02-04T00:34:46.141Z,927.73
2019-02-04T00:34:59.157Z,927.73
2019-02-04T00:35:11.271Z,927.75
2019-02-04T00:35:24.336Z,927.74
2019-02-04T00:35:37.364Z,927.75
2019-02-04T00:35:50.926Z,927.75
2019-02-04T00:36:03.940Z,927.78
2019-02-04T00:36:17.005Z,927.8
2019-02-04T00:36:30.007Z,927.79
2019-02-04T00:36:43.114Z,927.77
2019-02-04T00:36:56.619Z,927.79
2019-02-04T00:37:09.653Z,927.82
2019-02-04T00:37:22.659Z,927.78
2019-02-04T00:37:35.653Z,927.8
2019-02-04T00:37:48.778Z,927.82
2019-02-04T00:38:01.640Z,927.83
2019-02-04T00:38:15.144Z,927.8
2019-02-04T00:38:28.215Z,927.84
2019-02-04T00:38:41.272Z,927.85
2019-02-04T00:38:54.327Z,927.86
2019-02-04T00:39:09.996Z,927.85
2019-02-04T00:39:23.635Z,927.8
2019-02-04T00:39:36.740Z,927.8
2019-02-04T00:39:49.752Z,927.82
2019-02-04T00:40:02.781Z,927.8
2019-02-04T00:40:15.904Z,927.86
2019-02-04T00:40:29.621Z,927.84
2019-02-04T00:40:42.714Z,927.84
2019-02-04T00:40:55.816Z,927.87
2019-02-04T00:41:08.775Z,927.83
2019-02-04T00:41:21.822Z,927.84
2019-02-04T00:41:35.303Z,927.86
2019-02-04T00:41:48.392Z,927.85
2019-02-04T00:42:01.469Z,927.88
2019-02-04T00:42:14.483Z,927.83
2019-02-04T00:42:27.528Z,927.87
2019-02-04T00:42:41.757Z,927.9
2019-02-04T00:42:54.334Z,927.89
2019-02-04T00:43:07.410Z,927.9
2019-02-04T00:43:20.372Z,927.87
2019-02-04T00:43:33.354Z,927.87
2019-02-04T00:43:46.626Z,927.87
2019-02-04T00:43:59.965Z,927.87
2019-02-04T00:44:13.142Z,927.84
2019-02-04T00:44:26.217Z,927.86
2019-02-04T00:44:39.311Z,927.86
2019-02-04T00:44:52.730Z,927.89
2019-02-04T00:45:06.285Z,927.89
2019-02-04T00:45:19.340Z,927.9
2019-02-04T00:45:32.399Z,927.93
2019-02-04T00:45:45.465Z,927.89
2019-02-04T00:45:58.545Z,927.92
2019-02-04T00:46:12.051Z,927.92
2019-02-04T00:46:25.037Z,927.9
2019-02-04T00:46:38.059Z,927.93
2019-02-04T00:47:01.993Z,927.96
2019-02-04T00:47:15.725Z,927.92
2019-02-04T00:47:28.745Z,928
2019-02-04T00:47:41.745Z,927.96
2019-02-04T00:47:54.843Z,927.98
2019-02-04T00:48:07.806Z,927.96
2019-02-04T00:48:21.210Z,927.96
2019-02-04T00:48:34.428Z,927.97
2019-02-04T00:48:47.532Z,928
2019-02-04T00:49:00.562Z,927.99
2019-02-04T00:49:13.662Z,928.04
2019-02-04T00:49:26.621Z,928.03
2019-02-04T00:49:40.421Z,928.03
2019-02-04T00:49:53.503Z,928.02
2019-02-04T00:50:06.461Z,928.03
2019-02-04T00:50:19.532Z,928.04
2019-02-04T00:50:32.525Z,928.05
2019-02-04T00:50:46.253Z,928.04
2019-02-04T00:50:59.285Z,928.05
2019-02-04T00:51:12.388Z,928.02
2019-02-04T00:51:25.475Z,928.07
2019-02-04T00:51:38.557Z,928.01
2019-02-04T00:51:52.127Z,928.05
2019-02-04T00:52:05.096Z,928.06
2019-02-04T00:52:18.107Z,928.08
2019-02-04T00:52:31.133Z,928.07
2019-02-04T00:52:44.105Z,928.11
2019-02-04T00:52:57.765Z,928.13
2019-02-04T00:53:11.099Z,928.11
2019-02-04T00:53:24.070Z,928.1
2019-02-04T00:53:37.288Z,928.11
2019-02-04T00:53:50.318Z,928.11
2019-02-04T00:54:03.732Z,928.12
2019-02-04T00:54:17.274Z,928.12
2019-02-04T00:54:30.282Z,928.13
2019-02-04T00:54:43.352Z,928.15
2019-02-04T00:54:56.336Z,928.14
2019-02-04T00:55:09.380Z,928.14
2019-02-04T00:55:23.030Z,928.11
2019-02-04T00:55:36.102Z,928.16
2019-02-04T00:55:49.129Z,928.15
2019-02-04T00:56:02.113Z,928.17
2019-02-04T00:56:15.066Z,928.19
2019-02-04T00:56:28.684Z,928.18
2019-02-04T00:56:41.296Z,928.14
2019-02-04T00:56:54.375Z,928.16
2019-02-04T00:57:07.515Z,928.18
2019-02-04T00:57:20.511Z,928.17
2019-02-04T00:57:34.204Z,928.2
2019-02-04T00:57:48.375Z,928.17
2019-02-04T00:58:00.954Z,928.15
2019-02-04T00:58:13.979Z,928.17
2019-02-04T00:58:27.066Z,928.17
2019-02-04T00:58:40.523Z,928.17
2019-02-04T00:58:53.931Z,928.21
2019-02-04T00:59:07.014Z,928.2
2019-02-04T00:59:19.980Z,928.16
2019-02-04T00:59:33.007Z,928.16
2019-02-04T00:59:46.054Z,928.13
2019-02-04T00:59:59.701Z,928.18
2019-02-04T01:00:12.696Z,928.19
2019-02-04T01:00:26.799Z,928.16
2019-02-04T01:00:40.048Z,928.22
2019-02-04T01:00:53.035Z,928.23
2019-02-04T01:01:06.529Z,928.19
2019-02-04T01:01:19.615Z,928.18
2019-02-04T01:01:32.164Z,928.19
2019-02-04T01:01:45.250Z,928.23
2019-02-04T01:01:58.266Z,928.22
2019-02-04T01:02:11.885Z,928.22
2019-02-04T01:02:24.976Z,928.25
2019-02-04T01:02:38.076Z,928.22
2019-02-04T01:02:51.143Z,928.2
2019-02-04T01:03:04.214Z,928.23
2019-02-04T01:03:17.959Z,928.19
2019-02-04T01:03:31.263Z,928.23
2019-02-04T01:03:44.319Z,928.3
2019-02-04T01:03:57.365Z,928.26
2019-02-04T01:04:10.394Z,928.23
2019-02-04T01:04:23.241Z,928.24
2019-02-04T01:04:36.764Z,928.24
2019-02-04T01:04:49.363Z,928.28
2019-02-04T01:05:02.447Z,928.27
2019-02-04T01:05:15.400Z,928.24
2019-02-04T01:05:28.387Z,928.25
2019-02-04T01:05:42.084Z,928.27
2019-02-04T01:05:55.134Z,928.23
2019-02-04T01:06:08.168Z,928.22
2019-02-04T01:06:21.244Z,928.23
2019-02-04T01:06:34.309Z,928.18
2019-02-04T01:06:47.765Z,928.23
2019-02-04T01:07:00.851Z,928.21
2019-02-04T01:07:13.955Z,928.26
2019-02-04T01:07:26.946Z,928.2
2019-02-04T01:07:39.997Z,928.23
2019-02-04T01:07:53.612Z,928.19
2019-02-04T01:08:05.808Z,928.2
2019-02-04T01:08:18.875Z,928.13
2019-02-04T01:08:31.932Z,928.17
2019-02-04T01:08:44.991Z,928.17
2019-02-04T01:08:58.217Z,928.14
2019-02-04T01:09:11.725Z,928.11
2019-02-04T01:09:25.311Z,928.19
2019-02-04T01:09:38.314Z,928.16
2019-02-04T01:09:51.371Z,928.15
2019-02-04T01:10:04.444Z,928.11
2019-02-04T01:10:17.708Z,928.11
2019-02-04T01:10:30.831Z,928.13
2019-02-04T01:10:43.845Z,928.13
2019-02-04T01:10:56.837Z,928.14
2019-02-04T01:11:09.952Z,928.13
2019-02-04T01:11:23.426Z,928.16
2019-02-04T01:11:36.446Z,928.17
2019-02-04T01:11:49.466Z,928.16
2019-02-04T01:12:02.502Z,928.17
2019-02-04T01:12:15.494Z,928.16
2019-02-04T01:12:29.017Z,928.15
2019-02-04T01:12:42.056Z,928.18
2019-02-04T01:12:55.438Z,928.13
2019-02-04T01:13:08.443Z,928.13
2019-02-04T01:13:21.604Z,928.17
2019-02-04T01:13:35.053Z,928.16
2019-02-04T01:13:48.449Z,928.17
2019-02-04T01:14:01.482Z,928.15
2019-02-04T01:14:14.061Z,928.15
2019-02-04T01:14:27.044Z,928.2
2019-02-04T01:14:40.084Z,928.17
2019-02-04T01:14:53.804Z,928.15
2019-02-04T01:15:06.902Z,928.18
2019-02-04T01:15:20.012Z,928.17
2019-02-04T01:15:33.135Z,928.15
2019-02-04T01:15:46.198Z,928.16
2019-02-04T01:15:59.774Z,928.15
2019-02-04T01:16:12.836Z,928.17
2019-02-04T01:16:25.830Z,928.2
2019-02-04T01:16:38.895Z,928.2
2019-02-04T01:17:02.960Z,928.22
2019-02-04T01:17:16.260Z,928.23
2019-02-04T01:17:29.245Z,928.28
2019-02-04T01:17:41.815Z,928.19
2019-02-04T01:17:55.051Z,928.22
2019-02-04T01:18:08.417Z,928.17
2019-02-04T01:18:21.763Z,928.22
2019-02-04T01:18:34.796Z,928.23
2019-02-04T01:18:47.862Z,928.29
2019-02-04T01:19:00.874Z,928.22
2019-02-04T01:19:13.960Z,928.3
2019-02-04T01:19:27.269Z,928.27
2019-02-04T01:19:40.292Z,928.23
2019-02-04T01:19:53.314Z,928.26
2019-02-04T01:20:05.930Z,928.25
2019-02-04T01:20:19.015Z,928.29
2019-02-04T01:20:32.696Z,928.27
2019-02-04T01:20:45.285Z,928.31
2019-02-04T01:20:58.385Z,928.32
2019-02-04T01:21:11.429Z,928.29
2019-02-04T01:21:24.444Z,928.3
2019-02-04T01:21:37.961Z,928.27
2019-02-04T01:21:51.041Z,928.3
2019-02-04T01:22:04.072Z,928.3
2019-02-04T01:22:17.141Z,928.32
2019-02-04T01:22:30.088Z,928.3
2019-02-04T01:22:43.597Z,928.27
2019-02-04T01:22:56.922Z,928.3
2019-02-04T01:23:09.886Z,928.3
2019-02-04T01:23:22.952Z,928.28
2019-02-04T01:23:35.982Z,928.23
2019-02-04T01:23:49.014Z,928.28
2019-02-04T01:24:02.408Z,928.29
2019-02-04T01:24:15.501Z,928.27
2019-02-04T01:24:28.691Z,928.27
2019-02-04T01:24:41.729Z,928.21
2019-02-04T01:24:55.404Z,928.26
2019-02-04T01:25:08.884Z,928.24
2019-02-04T01:25:21.921Z,928.25
2019-02-04T01:25:34.947Z,928.25
2019-02-04T01:25:47.947Z,928.21
2019-02-04T01:26:00.971Z,928.26
2019-02-04T01:26:14.623Z,928.22
2019-02-04T01:26:27.621Z,928.24
2019-02-04T01:26:40.610Z,928.25
2019-02-04T01:26:53.676Z,928.24
2019-02-04T01:27:06.682Z,928.28
2019-02-04T01:27:20.248Z,928.24
2019-02-04T01:27:33.304Z,928.21
2019-02-04T01:27:46.366Z,928.24
2019-02-04T01:28:00.108Z,928.21
2019-02-04T01:28:13.219Z,928.25
2019-02-04T01:28:26.763Z,928.23
2019-02-04T01:28:39.905Z,928.25
2019-02-04T01:28:52.891Z,928.19
2019-02-04T01:29:05.957Z,928.25
2019-02-04T01:29:19.081Z,928.25
2019-02-04T01:29:32.426Z,928.26
2019-02-04T01:29:46.135Z,928.24
2019-02-04T01:29:59.113Z,928.22
2019-02-04T01:30:12.137Z,928.21
2019-02-04T01:30:25.253Z,928.25
2019-02-04T01:30:38.349Z,928.25
2019-02-04T01:30:51.894Z,928.25
2019-02-04T01:31:04.915Z,928.29
2019-02-04T01:31:17.913Z,928.29
2019-02-04T01:31:30.885Z,928.29
2019-02-04T01:31:43.931Z,928.27
2019-02-04T01:31:57.600Z,928.3
2019-02-04T01:32:10.627Z,928.26
2019-02-04T01:32:23.662Z,928.33
2019-02-04T01:32:36.651Z,928.29
2019-02-04T01:32:49.639Z,928.25
2019-02-04T01:33:03.322Z,928.29
2019-02-04T01:33:16.383Z,928.28
2019-02-04T01:33:29.339Z,928.3
2019-02-04T01:33:42.358Z,928.26
2019-02-04T01:33:55.484Z,928.28
2019-02-04T01:34:08.776Z,928.3
2019-02-04T01:34:22.106Z,928.32
2019-02-04T01:34:35.341Z,928.34
2019-02-04T01:34:50.118Z,928.36
2019-02-04T01:35:02.649Z,928.27
2019-02-04T01:35:15.990Z,928.28
2019-02-04T01:35:29.621Z,928.31
2019-02-04T01:35:42.657Z,928.32
2019-02-04T01:35:55.688Z,928.31
2019-02-04T01:36:08.687Z,928.3
2019-02-04T01:36:21.745Z,928.31
2019-02-04T01:36:35.387Z,928.3
2019-02-04T01:36:48.472Z,928.28
2019-02-04T01:37:01.487Z,928.3
2019-02-04T01:37:14.498Z,928.35
2019-02-04T01:37:27.504Z,928.3
2019-02-04T01:37:41.244Z,928.3
2019-02-04T01:37:54.316Z,928.28
2019-02-04T01:38:07.465Z,928.32
2019-02-04T01:38:20.515Z,928.36
2019-02-04T01:38:33.691Z,928.33
2019-02-04T01:38:47.042Z,928.34
2019-02-04T01:38:59.580Z,928.3
2019-02-04T01:39:12.649Z,928.35
2019-02-04T01:39:25.789Z,928.32
2019-02-04T01:39:38.366Z,928.36
2019-02-04T01:39:51.769Z,928.35
2019-02-04T01:40:04.953Z,928.33
2019-02-04T01:40:18.020Z,928.35
2019-02-04T01:40:31.029Z,928.3
2019-02-04T01:40:44.040Z,928.3
2019-02-04T01:40:57.110Z,928.33
2019-02-04T01:41:10.874Z,928.31
2019-02-04T01:41:23.925Z,928.35
2019-02-04T01:41:37.468Z,928.4
2019-02-04T01:41:50.528Z,928.36
2019-02-04T01:42:03.534Z,928.33
2019-02-04T01:42:17.151Z,928.36
2019-02-04T01:42:30.232Z,928.39
2019-02-04T01:42:43.247Z,928.34
2019-02-04T01:42:55.844Z,928.37
2019-02-04T01:43:09.062Z,928.39
2019-02-04T01:43:22.349Z,928.36
2019-02-04T01:43:35.389Z,928.36
2019-02-04T01:43:48.465Z,928.34
2019-02-04T01:44:01.533Z,928.34
2019-02-04T01:44:14.576Z,928.31
2019-02-04T01:44:28.232Z,928.34
2019-02-04T01:44:41.507Z,928.32
2019-02-04T01:44:54.256Z,928.34
2019-02-04T01:45:07.415Z,928.32
2019-02-04T01:45:20.405Z,928.34
2019-02-04T01:45:33.817Z,928.31
2019-02-04T01:45:47.448Z,928.31
2019-02-04T01:46:00.441Z,928.3
2019-02-04T01:46:13.501Z,928.3
2019-02-04T01:46:26.105Z,928.35
2019-02-04T01:46:39.097Z,928.35
2019-02-04T01:46:52.341Z,928.33
2019-02-04T01:47:15.354Z,928.29
2019-02-04T01:47:28.427Z,928.3
2019-02-04T01:47:41.497Z,928.29
2019-02-04T01:47:55.127Z,928.29
2019-02-04T01:48:08.351Z,928.29
2019-02-04T01:48:21.438Z,928.33
2019-02-04T01:48:34.486Z,928.29
2019-02-04T01:48:47.619Z,928.27
2019-02-04T01:49:00.862Z,928.28
2019-02-04T01:49:13.975Z,928.26
2019-02-04T01:49:26.995Z,928.25
2019-02-04T01:49:40.046Z,928.27
2019-02-04T01:49:53.074Z,928.27
2019-02-04T01:50:06.122Z,928.27
2019-02-04T01:50:19.885Z,928.25
2019-02-04T01:50:32.942Z,928.28
2019-02-04T01:50:46.034Z,928.27
2019-02-04T01:50:59.074Z,928.26
2019-02-04T01:51:12.130Z,928.28
2019-02-04T01:51:25.655Z,928.23
2019-02-04T01:51:38.641Z,928.24
2019-02-04T01:51:51.680Z,928.21
2019-02-04T01:52:04.721Z,928.22
2019-02-04T01:52:17.351Z,928.22
2019-02-04T01:52:30.963Z,928.23
2019-02-04T01:52:43.934Z,928.19
2019-02-04T01:52:56.978Z,928.22
2019-02-04T01:53:10.068Z,928.18
2019-02-04T01:53:23.176Z,928.19
2019-02-04T01:53:36.537Z,928.18
2019-02-04T01:53:50.002Z,928.15
2019-02-04T01:54:03.043Z,928.18
2019-02-04T01:54:16.057Z,928.16
2019-02-04T01:54:28.996Z,928.13
2019-02-04T01:54:42.027Z,928.12
2019-02-04T01:54:55.648Z,928.14
2019-02-04T01:55:08.646Z,928.13
2019-02-04T01:55:21.767Z,928.14
2019-02-04T01:55:34.783Z,928.12
2019-02-04T01:55:47.836Z,928.12
2019-02-04T01:56:02.427Z,928.08
2019-02-04T01:56:15.357Z,928.1
2019-02-04T01:56:28.357Z,928.06
2019-02-04T01:56:41.424Z,928.07
2019-02-04T01:56:54.434Z,928.06
2019-02-04T01:57:08.050Z,928.03
2019-02-04T01:57:21.018Z,928.07
2019-02-04T01:57:34.021Z,928.07
2019-02-04T01:57:47.092Z,928.05
2019-02-04T01:58:00.269Z,928.06
2019-02-04T01:58:13.746Z,928.03
2019-02-04T01:58:26.935Z,928.06
2019-02-04T01:58:39.965Z,928.07
2019-02-04T01:58:52.970Z,928.07
2019-02-04T01:59:05.556Z,928.01
2019-02-04T01:59:18.906Z,928.05
2019-02-04T01:59:32.470Z,928
2019-02-04T01:59:45.497Z,927.99
2019-02-04T01:59:58.537Z,928.01
2019-02-04T02:00:11.556Z,928.03
2019-02-04T02:00:24.553Z,928.03
2019-02-04T02:00:38.247Z,928.02
2019-02-04T02:00:51.315Z,928.01
2019-02-04T02:01:04.337Z,927.99
2019-02-04T02:01:17.372Z,928
2019-02-04T02:01:30.345Z,928.01
2019-02-04T02:01:43.924Z,928.01
2019-02-04T02:01:56.917Z,928
2019-02-04T02:02:09.925Z,927.95
2019-02-04T02:02:22.982Z,928
2019-02-04T02:02:36.004Z,927.99
2019-02-04T02:02:49.790Z,927.97
2019-02-04T02:03:02.825Z,927.99
2019-02-04T02:03:15.897Z,927.98
2019-02-04T02:03:28.881Z,928.02
2019-02-04T02:03:41.875Z,928.01
2019-02-04T02:03:55.416Z,928.01
2019-02-04T02:04:08.594Z,927.99
2019-02-04T02:04:21.602Z,927.98
2019-02-04T02:04:34.672Z,927.97
2019-02-04T02:04:47.757Z,928
2019-02-04T02:05:00.990Z,927.96
2019-02-04T02:05:14.411Z,927.99
2019-02-04T02:05:27.424Z,927.98
2019-02-04T02:05:40.507Z,927.97
2019-02-04T02:05:53.558Z,927.99
2019-02-04T02:06:06.657Z,927.98
2019-02-04T02:06:20.110Z,927.99
2019-02-04T02:06:33.184Z,927.99
2019-02-04T02:06:46.268Z,928
2019-02-04T02:06:59.295Z,928.01
2019-02-04T02:07:12.380Z,928
2019-02-04T02:07:25.995Z,928.01
2019-02-04T02:07:38.992Z,928.02
2019-02-04T02:07:51.928Z,927.98
2019-02-04T02:08:04.938Z,927.98
2019-02-04T02:08:18.001Z,927.99
2019-02-04T02:08:31.779Z,928
2019-02-04T02:08:44.802Z,928.03
2019-02-04T02:08:57.861Z,928.02
2019-02-04T02:09:10.913Z,928.01
2019-02-04T02:09:23.970Z,928.01
2019-02-04T02:09:37.377Z,928.03
2019-02-04T02:09:50.820Z,928.01
2019-02-04T02:10:03.812Z,928.03
2019-02-04T02:10:16.871Z,928.01
2019-02-04T02:10:29.926Z,928.04
2019-02-04T02:10:43.038Z,928.01
2019-02-04T02:10:56.589Z,928.03
2019-02-04T02:11:09.654Z,928.03
2019-02-04T02:11:22.668Z,928.05
2019-02-04T02:11:35.711Z,928.05
2019-02-04T02:11:48.697Z,928
2019-02-04T02:12:02.310Z,928.04
2019-02-04T02:12:15.358Z,928.03
2019-02-04T02:12:28.020Z,928.04
2019-02-04T02:12:41.109Z,928.07
2019-02-04T02:12:53.712Z,928.07
2019-02-04T02:13:07.250Z,928.07
2019-02-04T02:13:20.806Z,928.03
2019-02-04T02:13:33.785Z,928.09
2019-02-04T02:13:46.847Z,928.02
2019-02-04T02:13:59.896Z,928.01
2019-02-04T02:14:13.467Z,928
2019-02-04T02:14:26.794Z,928
2019-02-04T02:14:39.840Z,928
2019-02-04T02:14:52.908Z,927.99
2019-02-04T02:15:05.940Z,927.99
2019-02-04T02:15:19.499Z,927.99
2019-02-04T02:15:33.083Z,927.96
2019-02-04T02:15:46.298Z,927.89
2019-02-04T02:15:59.321Z,927.91
2019-02-04T02:16:12.459Z,927.92
2019-02-04T02:16:25.514Z,927.89
2019-02-04T02:16:41.187Z,927.88
2019-02-04T02:16:54.240Z,927.88
2019-02-04T02:17:07.172Z,927.88
2019-02-04T02:17:30.635Z,927.84
2019-02-04T02:17:44.466Z,927.86
2019-02-04T02:17:57.513Z,927.8
2019-02-04T02:18:10.543Z,927.82
2019-02-04T02:18:23.764Z,927.78
2019-02-04T02:18:36.749Z,927.77
2019-02-04T02:18:50.440Z,927.75
2019-02-04T02:19:03.482Z,927.74
2019-02-04T02:19:16.535Z,927.76
2019-02-04T02:19:29.671Z,927.73
2019-02-04T02:19:42.743Z,927.72
2019-02-04T02:19:56.247Z,927.73
2019-02-04T02:20:09.565Z,927.72
2019-02-04T02:20:22.659Z,927.7
2019-02-04T02:20:35.716Z,927.74
2019-02-04T02:20:48.782Z,927.72
2019-02-04T02:21:02.184Z,927.71
2019-02-04T02:21:15.694Z,927.69
2019-02-04T02:21:28.717Z,927.7
2019-02-04T02:21:41.734Z,927.72
2019-02-04T02:21:54.772Z,927.69
2019-02-04T02:22:07.849Z,927.71
2019-02-04T02:22:21.659Z,927.72
2019-02-04T02:22:34.758Z,927.66
2019-02-04T02:22:47.872Z,927.7
2019-02-04T02:23:00.867Z,927.71
2019-02-04T02:23:13.922Z,927.7
2019-02-04T02:23:27.493Z,927.7
2019-02-04T02:23:40.518Z,927.7
2019-02-04T02:23:53.602Z,927.69
2019-02-04T02:24:06.702Z,927.69
2019-02-04T02:24:19.727Z,927.71
2019-02-04T02:24:33.235Z,927.74
2019-02-04T02:24:46.232Z,927.69
2019-02-04T02:24:59.318Z,927.71
2019-02-04T02:25:12.356Z,927.73
2019-02-04T02:25:25.363Z,927.71
2019-02-04T02:25:39.024Z,927.72
2019-02-04T02:25:52.285Z,927.67
2019-02-04T02:26:05.337Z,927.71
2019-02-04T02:26:18.398Z,927.68
2019-02-04T02:26:31.417Z,927.71
2019-02-04T02:26:45.506Z,927.67
2019-02-04T02:26:58.951Z,927.68
2019-02-04T02:27:11.990Z,927.69
2019-02-04T02:27:24.943Z,927.65
2019-02-04T02:27:38.059Z,927.66
2019-02-04T02:27:51.151Z,927.68
2019-02-04T02:28:04.792Z,927.66
2019-02-04T02:28:20.280Z,927.64
2019-02-04T02:28:33.274Z,927.65
2019-02-04T02:28:46.351Z,927.62
2019-02-04T02:28:59.436Z,927.61
2019-02-04T02:29:13.182Z,927.66
2019-02-04T02:29:26.145Z,927.62
2019-02-04T02:29:39.287Z,927.6
2019-02-04T02:29:52.308Z,927.6
2019-02-04T02:30:05.416Z,927.6
2019-02-04T02:30:18.571Z,927.56
2019-02-04T02:30:31.667Z,927.56
2019-02-04T02:30:44.302Z,927.59
2019-02-04T02:30:57.422Z,927.59
2019-02-04T02:31:10.544Z,927.62
2019-02-04T02:31:23.756Z,927.62
2019-02-04T02:31:36.769Z,927.61
2019-02-04T02:31:49.833Z,927.62
2019-02-04T02:32:02.923Z,927.59
2019-02-04T02:32:15.993Z,927.61
2019-02-04T02:32:29.742Z,927.6
2019-02-04T02:32:43.195Z,927.62
2019-02-04T02:32:56.220Z,927.61
2019-02-04T02:33:09.178Z,927.65
2019-02-04T02:33:22.154Z,927.65
2019-02-04T02:33:35.252Z,927.65
2019-02-04T02:33:48.792Z,927.66
2019-02-04T02:34:01.773Z,927.66
2019-02-04T02:34:14.794Z,927.65
2019-02-04T02:34:27.839Z,927.66
2019-02-04T02:34:40.817Z,927.62
2019-02-04T02:34:54.505Z,927.64
2019-02-04T02:35:07.517Z,927.63
2019-02-04T02:35:20.524Z,927.6
2019-02-04T02:35:33.639Z,927.61
2019-02-04T02:35:46.635Z,927.59
2019-02-04T02:36:00.266Z,927.58
2019-02-04T02:36:13.397Z,927.56
2019-02-04T02:36:26.459Z,927.56
2019-02-04T02:36:39.522Z,927.55
2019-02-04T02:36:52.538Z,927.53
2019-02-04T02:37:06.125Z,927.51
2019-02-04T02:37:19.373Z,927.49
2019-02-04T02:37:32.415Z,927.48
2019-02-04T02:37:45.473Z,927.49
2019-02-04T02:37:58.468Z,927.46
2019-02-04T02:38:11.617Z,927.46
2019-02-04T02:38:25.300Z,927.43
2019-02-04T02:38:38.311Z,927.41
2019-02-04T02:38:51.326Z,927.39
2019-02-04T02:39:04.457Z,927.39
2019-02-04T02:39:17.426Z,927.37
2019-02-04T02:39:30.470Z,927.36
2019-02-04T02:39:43.585Z,927.34
2019-02-04T02:39:56.604Z,927.29
2019-02-04T02:40:09.639Z,927.28
2019-02-04T02:40:22.219Z,927.27
2019-02-04T02:40:35.867Z,927.28
2019-02-04T02:40:48.883Z,927.24
2019-02-04T02:41:01.884Z,927.25
2019-02-04T02:41:14.952Z,927.25
2019-02-04T02:41:27.966Z,927.19
2019-02-04T02:41:41.245Z,927.26
2019-02-04T02:41:54.705Z,927.23
2019-02-04T02:42:07.770Z,927.23
2019-02-04T02:42:20.780Z,927.22
2019-02-04T02:42:33.856Z,927.19
2019-02-04T02:42:46.886Z,927.22
2019-02-04T02:43:00.565Z,927.23
2019-02-04T02:43:15.937Z,927.22
2019-02-04T02:43:29.976Z,927.19
2019-02-04T02:43:43.085Z,927.18
2019-02-04T02:43:56.094Z,927.17
2019-02-04T02:44:09.647Z,927.16
2019-02-04T02:44:22.739Z,927.16
2019-02-04T02:44:35.749Z,927.1
2019-02-04T02:44:48.760Z,927.1
2019-02-04T02:45:01.864Z,927.12
2019-02-04T02:45:15.447Z,927.11
2019-02-04T02:45:28.473Z,927.09
2019-02-04T02:45:41.615Z,927.08
2019-02-04T02:45:54.675Z,927.09
2019-02-04T02:46:07.790Z,927.1
2019-02-04T02:46:21.227Z,927.08